sensor_id;sensor_type;location;lat;lon;timestamp;temperature;humidity
78788;DHT22;68131;52.508;5.502;2023-04-23T00:01:40;10.00;75.50
78788;DHT22;68131;52.508;5.502;2023-04-23T00:04:14;10.10;75.40
78788;DHT22;68131;52.508;5.502;2023-04-23T00:06:45;10.10;75.40
78788;DHT22;68131;52.508;5.502;2023-04-23T00:09:15;10.10;75.50
78788;DHT22;68131;52.508;5.502;2023-04-23T00:11:44;10.10;75.40
78788;DHT22;68131;52.508;5.502;2023-04-23T00:14:14;10.10;75.40
78788;DHT22;68131;52.508;5.502;2023-04-23T00:16:43;10.10;75.50
78788;DHT22;68131;52.508;5.502;2023-04-23T00:19:15;10.10;75.50
78788;DHT22;68131;52.508;5.502;2023-04-23T00:21:44;10.10;75.40
78788;DHT22;68131;52.508;5.502;2023-04-23T00:24:13;10.10;75.40
78788;DHT22;68131;52.508;5.502;2023-04-23T00:26:42;10.10;75.50
78788;DHT22;68131;52.508;5.502;2023-04-23T00:29:11;10.10;75.50
78788;DHT22;68131;52.508;5.502;2023-04-23T00:31:40;10.00;75.50
78788;DHT22;68131;52.508;5.502;2023-04-23T00:34:10;10.00;75.60
78788;DHT22;68131;52.508;5.502;2023-04-23T00:36:41;9.90;75.60
78788;DHT22;68131;52.508;5.502;2023-04-23T00:39:10;9.90;75.80
78788;DHT22;68131;52.508;5.502;2023-04-23T00:41:40;9.90;75.80
78788;DHT22;68131;52.508;5.502;2023-04-23T00:44:09;9.80;75.80
78788;DHT22;68131;52.508;5.502;2023-04-23T00:46:39;9.70;75.90
78788;DHT22;68131;52.508;5.502;2023-04-23T00:49:08;9.70;76.00
78788;DHT22;68131;52.508;5.502;2023-04-23T00:51:37;9.70;76.10
78788;DHT22;68131;52.508;5.502;2023-04-23T00:54:09;9.70;76.20
78788;DHT22;68131;52.508;5.502;2023-04-23T00:56:39;9.60;76.30
78788;DHT22;68131;52.508;5.502;2023-04-23T00:59:08;9.60;76.30
78788;DHT22;68131;52.508;5.502;2023-04-23T01:01:37;9.60;76.20
78788;DHT22;68131;52.508;5.502;2023-04-23T01:04:07;9.60;76.30
78788;DHT22;68131;52.508;5.502;2023-04-23T01:06:37;9.60;76.30
78788;DHT22;68131;52.508;5.502;2023-04-23T01:09:09;9.60;76.30
78788;DHT22;68131;52.508;5.502;2023-04-23T01:11:42;9.50;76.40
78788;DHT22;68131;52.508;5.502;2023-04-23T01:14:11;9.50;76.50
78788;DHT22;68131;52.508;5.502;2023-04-23T01:16:40;9.40;76.50
78788;DHT22;68131;52.508;5.502;2023-04-23T01:19:10;9.40;76.60
78788;DHT22;68131;52.508;5.502;2023-04-23T01:21:41;9.40;76.70
78788;DHT22;68131;52.508;5.502;2023-04-23T01:24:13;9.30;76.80
78788;DHT22;68131;52.508;5.502;2023-04-23T01:26:42;9.30;77.00
78788;DHT22;68131;52.508;5.502;2023-04-23T01:29:12;9.30;77.00
78788;DHT22;68131;52.508;5.502;2023-04-23T01:31:42;9.20;77.10
78788;DHT22;68131;52.508;5.502;2023-04-23T01:34:12;9.20;77.30
78788;DHT22;68131;52.508;5.502;2023-04-23T01:36:42;9.20;77.40
78788;DHT22;68131;52.508;5.502;2023-04-23T01:39:14;9.20;77.60
78788;DHT22;68131;52.508;5.502;2023-04-23T01:41:44;9.20;77.70
78788;DHT22;68131;52.508;5.502;2023-04-23T01:44:14;9.20;77.80
78788;DHT22;68131;52.508;5.502;2023-04-23T01:46:43;9.10;77.80
78788;DHT22;68131;52.508;5.502;2023-04-23T01:49:13;9.10;78.00
78788;DHT22;68131;52.508;5.502;2023-04-23T01:51:43;9.10;78.10
78788;DHT22;68131;52.508;5.502;2023-04-23T01:54:15;9.10;78.30
78788;DHT22;68131;52.508;5.502;2023-04-23T01:56:44;9.10;78.30
78788;DHT22;68131;52.508;5.502;2023-04-23T01:59:13;9.10;78.50
78788;DHT22;68131;52.508;5.502;2023-04-23T02:01:44;9.10;78.70
78788;DHT22;68131;52.508;5.502;2023-04-23T02:04:14;9.20;78.80
78788;DHT22;68131;52.508;5.502;2023-04-23T02:06:46;9.20;78.80
78788;DHT22;68131;52.508;5.502;2023-04-23T02:09:19;9.20;78.90
78788;DHT22;68131;52.508;5.502;2023-04-23T02:11:48;9.20;78.80
78788;DHT22;68131;52.508;5.502;2023-04-23T02:14:18;9.20;78.90
78788;DHT22;68131;52.508;5.502;2023-04-23T02:16:47;9.20;79.00
78788;DHT22;68131;52.508;5.502;2023-04-23T02:19:16;9.20;79.10
78788;DHT22;68131;52.508;5.502;2023-04-23T02:21:46;9.20;79.30
78788;DHT22;68131;52.508;5.502;2023-04-23T02:24:15;9.20;79.30
78788;DHT22;68131;52.508;5.502;2023-04-23T02:26:46;9.30;79.30
78788;DHT22;68131;52.508;5.502;2023-04-23T02:29:16;9.30;79.30
78788;DHT22;68131;52.508;5.502;2023-04-23T02:31:45;9.30;79.30
78788;DHT22;68131;52.508;5.502;2023-04-23T02:34:14;9.30;79.30
78788;DHT22;68131;52.508;5.502;2023-04-23T02:36:43;9.30;79.20
78788;DHT22;68131;52.508;5.502;2023-04-23T02:39:12;9.40;79.20
78788;DHT22;68131;52.508;5.502;2023-04-23T02:41:41;9.40;79.10
78788;DHT22;68131;52.508;5.502;2023-04-23T02:44:13;9.40;79.10
78788;DHT22;68131;52.508;5.502;2023-04-23T02:46:42;9.50;79.10
78788;DHT22;68131;52.508;5.502;2023-04-23T02:49:11;9.50;79.00
78788;DHT22;68131;52.508;5.502;2023-04-23T02:51:41;9.50;78.90
78788;DHT22;68131;52.508;5.502;2023-04-23T02:54:10;9.50;78.90
78788;DHT22;68131;52.508;5.502;2023-04-23T02:56:39;9.50;78.80
78788;DHT22;68131;52.508;5.502;2023-04-23T02:59:09;9.50;78.90
78788;DHT22;68131;52.508;5.502;2023-04-23T03:01:40;9.50;78.90
78788;DHT22;68131;52.508;5.502;2023-04-23T03:04:10;9.50;78.80
78788;DHT22;68131;52.508;5.502;2023-04-23T03:06:40;9.50;78.80
78788;DHT22;68131;52.508;5.502;2023-04-23T03:09:09;9.50;78.90
78788;DHT22;68131;52.508;5.502;2023-04-23T03:11:38;9.50;78.80
78788;DHT22;68131;52.508;5.502;2023-04-23T03:14:08;9.50;78.90
78788;DHT22;68131;52.508;5.502;2023-04-23T03:16:40;9.60;78.90
78788;DHT22;68131;52.508;5.502;2023-04-23T03:19:09;9.60;78.80
78788;DHT22;68131;52.508;5.502;2023-04-23T03:21:38;9.60;78.80
78788;DHT22;68131;52.508;5.502;2023-04-23T03:24:11;9.70;78.70
78788;DHT22;68131;52.508;5.502;2023-04-23T03:26:41;9.70;78.60
78788;DHT22;68131;52.508;5.502;2023-04-23T03:29:10;9.60;78.50
78788;DHT22;68131;52.508;5.502;2023-04-23T03:31:42;9.60;78.60
78788;DHT22;68131;52.508;5.502;2023-04-23T03:34:11;9.60;78.70
78788;DHT22;68131;52.508;5.502;2023-04-23T03:36:40;9.60;78.70
78788;DHT22;68131;52.508;5.502;2023-04-23T03:39:10;9.70;78.60
78788;DHT22;68131;52.508;5.502;2023-04-23T03:41:51;9.70;78.50
78788;DHT22;68131;52.508;5.502;2023-04-23T03:44:25;9.80;78.30
78788;DHT22;68131;52.508;5.502;2023-04-23T03:46:56;9.80;78.30
78788;DHT22;68131;52.508;5.502;2023-04-23T03:49:26;9.80;78.20
78788;DHT22;68131;52.508;5.502;2023-04-23T03:51:55;9.70;78.10
78788;DHT22;68131;52.508;5.502;2023-04-23T03:54:24;9.80;78.10
78788;DHT22;68131;52.508;5.502;2023-04-23T03:57:14;9.80;78.10
78788;DHT22;68131;52.508;5.502;2023-04-23T04:00:03;9.80;78.00
78788;DHT22;68131;52.508;5.502;2023-04-23T04:02:42;9.80;78.00
78788;DHT22;68131;52.508;5.502;2023-04-23T04:05:12;9.80;78.00
78788;DHT22;68131;52.508;5.502;2023-04-23T04:07:41;9.80;77.90
78788;DHT22;68131;52.508;5.502;2023-04-23T04:10:10;9.80;77.80
78788;DHT22;68131;52.508;5.502;2023-04-23T04:12:40;9.80;77.70
78788;DHT22;68131;52.508;5.502;2023-04-23T04:15:10;9.80;77.80
78788;DHT22;68131;52.508;5.502;2023-04-23T04:17:42;9.70;77.80
78788;DHT22;68131;52.508;5.502;2023-04-23T04:20:12;9.70;78.00
78788;DHT22;68131;52.508;5.502;2023-04-23T04:22:41;9.70;78.00
78788;DHT22;68131;52.508;5.502;2023-04-23T04:25:11;9.80;78.00
78788;DHT22;68131;52.508;5.502;2023-04-23T04:27:40;9.80;78.00
78788;DHT22;68131;52.508;5.502;2023-04-23T04:30:10;9.80;78.00
78788;DHT22;68131;52.508;5.502;2023-04-23T04:32:42;9.90;77.90
78788;DHT22;68131;52.508;5.502;2023-04-23T04:35:12;9.90;77.80
78788;DHT22;68131;52.508;5.502;2023-04-23T04:37:41;9.90;77.80
78788;DHT22;68131;52.508;5.502;2023-04-23T04:40:11;9.90;77.70
78788;DHT22;68131;52.508;5.502;2023-04-23T04:42:41;9.90;77.70
78788;DHT22;68131;52.508;5.502;2023-04-23T04:45:12;9.90;77.70
78788;DHT22;68131;52.508;5.502;2023-04-23T04:47:44;9.90;77.60
78788;DHT22;68131;52.508;5.502;2023-04-23T04:50:13;9.80;77.70
78788;DHT22;68131;52.508;5.502;2023-04-23T04:52:42;9.80;77.70
78788;DHT22;68131;52.508;5.502;2023-04-23T04:55:12;9.80;77.70
78788;DHT22;68131;52.508;5.502;2023-04-23T04:57:41;9.80;77.80
78788;DHT22;68131;52.508;5.502;2023-04-23T05:00:23;9.80;77.80
78788;DHT22;68131;52.508;5.502;2023-04-23T05:02:56;9.80;77.80
78788;DHT22;68131;52.508;5.502;2023-04-23T05:05:26;9.90;77.80
78788;DHT22;68131;52.508;5.502;2023-04-23T05:07:55;9.90;77.80
78788;DHT22;68131;52.508;5.502;2023-04-23T05:10:27;9.90;77.80
78788;DHT22;68131;52.508;5.502;2023-04-23T05:12:56;10.00;77.70
78788;DHT22;68131;52.508;5.502;2023-04-23T05:15:26;10.00;77.70
78788;DHT22;68131;52.508;5.502;2023-04-23T05:17:57;10.40;78.10
78788;DHT22;68131;52.508;5.502;2023-04-23T05:20:27;11.10;77.00
78788;DHT22;68131;52.508;5.502;2023-04-23T05:22:56;11.40;75.50
78788;DHT22;68131;52.508;5.502;2023-04-23T05:25:28;11.50;74.60
78788;DHT22;68131;52.508;5.502;2023-04-23T05:27:57;11.30;74.50
78788;DHT22;68131;52.508;5.502;2023-04-23T05:30:26;11.20;74.70
78788;DHT22;68131;52.508;5.502;2023-04-23T05:32:58;11.10;75.60
78788;DHT22;68131;52.508;5.502;2023-04-23T05:35:27;11.50;75.10
78788;DHT22;68131;52.508;5.502;2023-04-23T05:37:57;11.70;74.90
78788;DHT22;68131;52.508;5.502;2023-04-23T05:40:27;12.00;74.10
78788;DHT22;68131;52.508;5.502;2023-04-23T05:42:57;12.30;73.70
78788;DHT22;68131;52.508;5.502;2023-04-23T05:45:27;12.60;72.80
78788;DHT22;68131;52.508;5.502;2023-04-23T05:47:59;12.90;72.20
78788;DHT22;68131;52.508;5.502;2023-04-23T05:50:28;13.10;71.80
78788;DHT22;68131;52.508;5.502;2023-04-23T05:52:57;13.30;71.30
78788;DHT22;68131;52.508;5.502;2023-04-23T05:55:26;13.50;71.00
78788;DHT22;68131;52.508;5.502;2023-04-23T05:57:55;13.70;70.30
78788;DHT22;68131;52.508;5.502;2023-04-23T06:00:24;13.80;70.50
78788;DHT22;68131;52.508;5.502;2023-04-23T06:02:53;13.80;69.80
78788;DHT22;68131;52.508;5.502;2023-04-23T06:05:25;13.70;69.90
78788;DHT22;68131;52.508;5.502;2023-04-23T06:07:54;13.80;70.40
78788;DHT22;68131;52.508;5.502;2023-04-23T06:10:23;13.90;69.80
78788;DHT22;68131;52.508;5.502;2023-04-23T06:12:52;14.00;69.80
78788;DHT22;68131;52.508;5.502;2023-04-23T06:15:22;14.10;69.60
78788;DHT22;68131;52.508;5.502;2023-04-23T06:17:52;14.20;69.40
78788;DHT22;68131;52.508;5.502;2023-04-23T06:20:21;14.20;69.10
78788;DHT22;68131;52.508;5.502;2023-04-23T06:22:53;14.30;69.40
78788;DHT22;68131;52.508;5.502;2023-04-23T06:25:22;14.30;69.30
78788;DHT22;68131;52.508;5.502;2023-04-23T06:27:51;14.40;69.20
78788;DHT22;68131;52.508;5.502;2023-04-23T06:30:25;14.50;68.80
78788;DHT22;68131;52.508;5.502;2023-04-23T06:32:54;14.60;69.00
78788;DHT22;68131;52.508;5.502;2023-04-23T06:35:23;14.70;68.30
78788;DHT22;68131;52.508;5.502;2023-04-23T06:37:54;14.70;68.30
78788;DHT22;68131;52.508;5.502;2023-04-23T06:40:23;14.90;68.00
78788;DHT22;68131;52.508;5.502;2023-04-23T06:42:52;15.10;67.60
78788;DHT22;68131;52.508;5.502;2023-04-23T06:45:51;15.20;67.60
78788;DHT22;68131;52.508;5.502;2023-04-23T06:48:20;15.30;67.00
78788;DHT22;68131;52.508;5.502;2023-04-23T06:50:51;15.30;67.30
78788;DHT22;68131;52.508;5.502;2023-04-23T06:53:22;15.50;67.60
78788;DHT22;68131;52.508;5.502;2023-04-23T06:55:51;15.80;67.70
78788;DHT22;68131;52.508;5.502;2023-04-23T06:58:20;16.00;66.80
78788;DHT22;68131;52.508;5.502;2023-04-23T07:00:56;16.10;65.90
78788;DHT22;68131;52.508;5.502;2023-04-23T07:03:28;16.20;66.60
78788;DHT22;68131;52.508;5.502;2023-04-23T07:05:57;16.40;66.10
78788;DHT22;68131;52.508;5.502;2023-04-23T07:08:29;16.50;65.80
78788;DHT22;68131;52.508;5.502;2023-04-23T07:10:58;16.70;66.00
78788;DHT22;68131;52.508;5.502;2023-04-23T07:13:27;16.90;66.00
78788;DHT22;68131;52.508;5.502;2023-04-23T07:15:56;17.10;64.70
78788;DHT22;68131;52.508;5.502;2023-04-23T07:18:25;17.20;64.00
78788;DHT22;68131;52.508;5.502;2023-04-23T07:20:55;17.20;64.20
78788;DHT22;68131;52.508;5.502;2023-04-23T07:23:24;17.20;64.10
78788;DHT22;68131;52.508;5.502;2023-04-23T07:25:55;17.20;63.60
78788;DHT22;68131;52.508;5.502;2023-04-23T07:28:25;17.20;64.30
78788;DHT22;68131;52.508;5.502;2023-04-23T07:30:54;17.30;64.10
78788;DHT22;68131;52.508;5.502;2023-04-23T07:35:00;-50.00;1.00
78788;DHT22;68131;52.508;5.502;2023-04-23T07:37:30;17.30;63.40
78788;DHT22;68131;52.508;5.502;2023-04-23T07:39:59;17.40;64.00
78788;DHT22;68131;52.508;5.502;2023-04-23T07:42:28;17.50;63.70
78788;DHT22;68131;52.508;5.502;2023-04-23T07:44:57;17.60;64.20
78788;DHT22;68131;52.508;5.502;2023-04-23T07:47:26;17.80;64.50
78788;DHT22;68131;52.508;5.502;2023-04-23T07:49:55;18.10;64.00
78788;DHT22;68131;52.508;5.502;2023-04-23T07:52:27;18.30;63.50
78788;DHT22;68131;52.508;5.502;2023-04-23T07:54:56;18.40;62.40
78788;DHT22;68131;52.508;5.502;2023-04-23T07:57:25;18.30;61.90
78788;DHT22;68131;52.508;5.502;2023-04-23T07:59:54;18.20;62.50
78788;DHT22;68131;52.508;5.502;2023-04-23T08:02:23;18.10;62.40
78788;DHT22;68131;52.508;5.502;2023-04-23T08:04:53;18.00;62.70
78788;DHT22;68131;52.508;5.502;2023-04-23T08:07:22;17.90;62.70
78788;DHT22;68131;52.508;5.502;2023-04-23T08:09:54;17.90;63.20
78788;DHT22;68131;52.508;5.502;2023-04-23T08:12:27;18.10;63.80
78788;DHT22;68131;52.508;5.502;2023-04-23T08:14:59;18.40;63.10
78788;DHT22;68131;52.508;5.502;2023-04-23T08:17:34;18.50;61.90
78788;DHT22;68131;52.508;5.502;2023-04-23T08:20:05;18.40;61.30
78788;DHT22;68131;52.508;5.502;2023-04-23T08:22:34;18.10;62.60
78788;DHT22;68131;52.508;5.502;2023-04-23T08:25:07;18.00;62.70
78788;DHT22;68131;52.508;5.502;2023-04-23T08:27:37;17.90;62.70
78788;DHT22;68131;52.508;5.502;2023-04-23T08:30:08;17.90;63.60
78788;DHT22;68131;52.508;5.502;2023-04-23T08:32:38;18.00;63.60
78788;DHT22;68131;52.508;5.502;2023-04-23T08:35:08;18.20;63.80
78788;DHT22;68131;52.508;5.502;2023-04-23T08:37:37;18.50;62.80
78788;DHT22;68131;52.508;5.502;2023-04-23T08:40:10;18.50;62.10
78788;DHT22;68131;52.508;5.502;2023-04-23T08:42:42;18.50;62.20
78788;DHT22;68131;52.508;5.502;2023-04-23T08:45:12;18.50;61.80
78788;DHT22;68131;52.508;5.502;2023-04-23T08:47:41;18.50;62.70
78788;DHT22;68131;52.508;5.502;2023-04-23T08:50:12;18.60;63.00
78788;DHT22;68131;52.508;5.502;2023-04-23T08:52:49;18.70;62.50
78788;DHT22;68131;52.508;5.502;2023-04-23T08:55:24;19.00;62.10
78788;DHT22;68131;52.508;5.502;2023-04-23T08:57:57;19.20;61.90
78788;DHT22;68131;52.508;5.502;2023-04-23T09:00:26;19.30;61.50
78788;DHT22;68131;52.508;5.502;2023-04-23T09:02:55;19.50;61.60
78788;DHT22;68131;52.508;5.502;2023-04-23T09:05:25;19.80;61.30
78788;DHT22;68131;52.508;5.502;2023-04-23T09:07:56;19.90;59.30
78788;DHT22;68131;52.508;5.502;2023-04-23T09:10:28;19.70;59.50
78788;DHT22;68131;52.508;5.502;2023-04-23T09:12:57;19.50;61.00
78788;DHT22;68131;52.508;5.502;2023-04-23T09:15:26;19.60;61.10
78788;DHT22;68131;52.508;5.502;2023-04-23T09:17:57;19.70;61.40
78788;DHT22;68131;52.508;5.502;2023-04-23T09:20:27;19.90;60.10
78788;DHT22;68131;52.508;5.502;2023-04-23T09:22:56;20.00;60.20
78788;DHT22;68131;52.508;5.502;2023-04-23T09:25:28;20.20;59.10
78788;DHT22;68131;52.508;5.502;2023-04-23T09:27:58;20.20;59.30
78788;DHT22;68131;52.508;5.502;2023-04-23T09:30:27;20.30;58.00
78788;DHT22;68131;52.508;5.502;2023-04-23T09:32:56;20.40;58.30
78788;DHT22;68131;52.508;5.502;2023-04-23T09:35:26;20.40;58.30
78788;DHT22;68131;52.508;5.502;2023-04-23T09:37:56;20.40;58.70
78788;DHT22;68131;52.508;5.502;2023-04-23T09:40:33;20.50;58.60
78788;DHT22;68131;52.508;5.502;2023-04-23T09:43:03;20.50;57.90
78788;DHT22;68131;52.508;5.502;2023-04-23T09:45:33;20.60;58.00
78788;DHT22;68131;52.508;5.502;2023-04-23T09:48:03;20.70;57.80
78788;DHT22;68131;52.508;5.502;2023-04-23T09:50:33;20.80;57.30
78788;DHT22;68131;52.508;5.502;2023-04-23T09:53:04;20.80;57.30
78788;DHT22;68131;52.508;5.502;2023-04-23T09:55:37;20.90;57.30
78788;DHT22;68131;52.508;5.502;2023-04-23T09:58:11;20.70;56.00
78788;DHT22;68131;52.508;5.502;2023-04-23T10:00:41;20.50;57.30
78788;DHT22;68131;52.508;5.502;2023-04-23T10:03:10;20.50;57.10
78788;DHT22;68131;52.508;5.502;2023-04-23T10:05:41;20.60;56.50
78788;DHT22;68131;52.508;5.502;2023-04-23T10:08:12;20.40;56.40
78788;DHT22;68131;52.508;5.502;2023-04-23T10:10:45;20.20;56.90
78788;DHT22;68131;52.508;5.502;2023-04-23T10:13:16;19.90;57.00
78788;DHT22;68131;52.508;5.502;2023-04-23T10:15:46;19.90;56.80
78788;DHT22;68131;52.508;5.502;2023-04-23T10:18:15;19.70;57.60
78788;DHT22;68131;52.508;5.502;2023-04-23T10:20:44;19.60;58.90
78788;DHT22;68131;52.508;5.502;2023-04-23T10:23:14;19.60;58.00
78788;DHT22;68131;52.508;5.502;2023-04-23T10:25:47;19.50;58.00
78788;DHT22;68131;52.508;5.502;2023-04-23T10:28:18;19.50;57.20
78788;DHT22;68131;52.508;5.502;2023-04-23T10:30:54;19.50;58.00
78788;DHT22;68131;52.508;5.502;2023-04-23T10:33:25;19.40;57.60
78788;DHT22;68131;52.508;5.502;2023-04-23T10:35:56;19.50;57.50
78788;DHT22;68131;52.508;5.502;2023-04-23T10:38:26;19.50;57.00
78788;DHT22;68131;52.508;5.502;2023-04-23T10:41:00;19.60;56.00
78788;DHT22;68131;52.508;5.502;2023-04-23T10:43:30;19.60;56.30
78788;DHT22;68131;52.508;5.502;2023-04-23T10:46:00;19.60;56.30
78788;DHT22;68131;52.508;5.502;2023-04-23T10:48:29;19.60;55.40
78788;DHT22;68131;52.508;5.502;2023-04-23T10:51:18;19.60;54.90
78788;DHT22;68131;52.508;5.502;2023-04-23T10:53:47;19.40;55.80
78788;DHT22;68131;52.508;5.502;2023-04-23T10:56:19;19.30;56.40
78788;DHT22;68131;52.508;5.502;2023-04-23T10:58:49;19.30;56.50
78788;DHT22;68131;52.508;5.502;2023-04-23T11:01:19;19.30;55.70
78788;DHT22;68131;52.508;5.502;2023-04-23T11:03:51;19.30;56.10
78788;DHT22;68131;52.508;5.502;2023-04-23T11:06:54;19.40;56.40
78788;DHT22;68131;52.508;5.502;2023-04-23T11:09:30;19.50;55.80
78788;DHT22;68131;52.508;5.502;2023-04-23T11:12:06;19.60;55.70
78788;DHT22;68131;52.508;5.502;2023-04-23T11:14:40;19.60;56.30
78788;DHT22;68131;52.508;5.502;2023-04-23T11:17:13;19.60;55.60
78788;DHT22;68131;52.508;5.502;2023-04-23T11:20:06;19.70;55.80
78788;DHT22;68131;52.508;5.502;2023-04-23T11:22:36;19.80;55.70
78788;DHT22;68131;52.508;5.502;2023-04-23T11:25:08;19.80;55.60
78788;DHT22;68131;52.508;5.502;2023-04-23T11:27:41;19.80;55.70
78788;DHT22;68131;52.508;5.502;2023-04-23T11:30:13;19.80;55.30
78788;DHT22;68131;52.508;5.502;2023-04-23T11:32:44;19.90;55.30
78788;DHT22;68131;52.508;5.502;2023-04-23T11:35:14;19.80;55.10
78788;DHT22;68131;52.508;5.502;2023-04-23T11:37:45;19.80;55.70
78788;DHT22;68131;52.508;5.502;2023-04-23T11:40:15;19.80;54.70
78788;DHT22;68131;52.508;5.502;2023-04-23T11:42:49;19.70;55.00
78788;DHT22;68131;52.508;5.502;2023-04-23T11:45:20;19.70;55.40
78788;DHT22;68131;52.508;5.502;2023-04-23T11:47:50;19.60;55.80
78788;DHT22;68131;52.508;5.502;2023-04-23T11:50:22;19.60;56.00
78788;DHT22;68131;52.508;5.502;2023-04-23T11:52:51;19.60;55.80
78788;DHT22;68131;52.508;5.502;2023-04-23T11:55:21;19.70;56.00
78788;DHT22;68131;52.508;5.502;2023-04-23T11:57:55;19.70;54.70
78788;DHT22;68131;52.508;5.502;2023-04-23T12:00:26;19.70;54.80
78788;DHT22;68131;52.508;5.502;2023-04-23T12:02:56;19.60;54.50
78788;DHT22;68131;52.508;5.502;2023-04-23T12:05:28;19.60;54.80
78788;DHT22;68131;52.508;5.502;2023-04-23T12:08:06;19.60;54.80
78788;DHT22;68131;52.508;5.502;2023-04-23T12:10:41;19.60;55.50
78788;DHT22;68131;52.508;5.502;2023-04-23T12:13:20;19.70;55.60
78788;DHT22;68131;52.508;5.502;2023-04-23T12:15:51;19.70;54.60
78788;DHT22;68131;52.508;5.502;2023-04-23T12:18:26;19.60;54.40
78788;DHT22;68131;52.508;5.502;2023-04-23T12:20:56;19.70;54.50
78788;DHT22;68131;52.508;5.502;2023-04-23T12:23:32;19.80;54.70
78788;DHT22;68131;52.508;5.502;2023-04-23T12:26:01;19.90;55.20
78788;DHT22;68131;52.508;5.502;2023-04-23T12:28:34;20.00;54.40
78788;DHT22;68131;52.508;5.502;2023-04-23T12:31:03;20.00;53.60
78788;DHT22;68131;52.508;5.502;2023-04-23T12:33:32;19.90;53.50
78788;DHT22;68131;52.508;5.502;2023-04-23T12:36:01;19.80;54.10
78788;DHT22;68131;52.508;5.502;2023-04-23T12:38:31;19.70;53.90
78788;DHT22;68131;52.508;5.502;2023-04-23T12:41:04;19.80;53.70
78788;DHT22;68131;52.508;5.502;2023-04-23T12:43:36;19.70;53.70
78788;DHT22;68131;52.508;5.502;2023-04-23T12:46:05;19.70;54.00
78788;DHT22;68131;52.508;5.502;2023-04-23T12:48:34;19.60;54.00
78788;DHT22;68131;52.508;5.502;2023-04-23T12:51:03;19.60;53.50
78788;DHT22;68131;52.508;5.502;2023-04-23T12:53:32;19.70;52.80
78788;DHT22;68131;52.508;5.502;2023-04-23T12:56:01;19.60;53.10
78788;DHT22;68131;52.508;5.502;2023-04-23T12:58:30;19.50;53.90
78788;DHT22;68131;52.508;5.502;2023-04-23T13:01:02;19.50;54.10
78788;DHT22;68131;52.508;5.502;2023-04-23T13:03:31;19.50;53.90
78788;DHT22;68131;52.508;5.502;2023-04-23T13:06:00;19.40;53.60
78788;DHT22;68131;52.508;5.502;2023-04-23T13:08:29;19.20;54.10
78788;DHT22;68131;52.508;5.502;2023-04-23T13:10:58;19.20;53.90
78788;DHT22;68131;52.508;5.502;2023-04-23T13:13:28;19.10;54.20
78788;DHT22;68131;52.508;5.502;2023-04-23T13:15:57;19.10;54.40
78788;DHT22;68131;52.508;5.502;2023-04-23T13:18:29;19.10;54.10
78788;DHT22;68131;52.508;5.502;2023-04-23T13:20:58;19.10;53.60
78788;DHT22;68131;52.508;5.502;2023-04-23T13:23:27;19.10;53.80
78788;DHT22;68131;52.508;5.502;2023-04-23T13:25:56;19.20;53.70
78788;DHT22;68131;52.508;5.502;2023-04-23T13:28:25;19.20;53.60
78788;DHT22;68131;52.508;5.502;2023-04-23T13:30:54;19.10;53.40
78788;DHT22;68131;52.508;5.502;2023-04-23T13:33:24;19.00;53.70
78788;DHT22;68131;52.508;5.502;2023-04-23T13:35:55;18.90;54.10
78788;DHT22;68131;52.508;5.502;2023-04-23T13:38:25;18.90;54.40
78788;DHT22;68131;52.508;5.502;2023-04-23T13:40:54;18.90;54.20
78788;DHT22;68131;52.508;5.502;2023-04-23T13:43:23;18.90;53.50
78788;DHT22;68131;52.508;5.502;2023-04-23T13:45:53;18.80;54.10
78788;DHT22;68131;52.508;5.502;2023-04-23T13:48:22;18.80;54.40
78788;DHT22;68131;52.508;5.502;2023-04-23T13:50:59;18.70;54.70
78788;DHT22;68131;52.508;5.502;2023-04-23T13:53:28;18.70;55.00
78788;DHT22;68131;52.508;5.502;2023-04-23T13:55:58;18.80;55.50
78788;DHT22;68131;52.508;5.502;2023-04-23T13:58:27;18.90;54.80
78788;DHT22;68131;52.508;5.502;2023-04-23T14:00:56;18.90;54.50
78788;DHT22;68131;52.508;5.502;2023-04-23T14:03:26;18.80;53.90
78788;DHT22;68131;52.508;5.502;2023-04-23T14:05:55;18.70;54.10
78788;DHT22;68131;52.508;5.502;2023-04-23T14:08:26;18.60;54.60
78788;DHT22;68131;52.508;5.502;2023-04-23T14:10:55;18.50;54.90
78788;DHT22;68131;52.508;5.502;2023-04-23T14:13:25;18.50;55.20
78788;DHT22;68131;52.508;5.502;2023-04-23T14:15:54;18.50;55.50
78788;DHT22;68131;52.508;5.502;2023-04-23T14:18:24;18.60;55.50
78788;DHT22;68131;52.508;5.502;2023-04-23T14:20:53;18.60;56.00
78788;DHT22;68131;52.508;5.502;2023-04-23T14:23:54;18.60;56.30
78788;DHT22;68131;52.508;5.502;2023-04-23T14:26:28;18.60;55.70
78788;DHT22;68131;52.508;5.502;2023-04-23T14:29:08;18.50;55.40
78788;DHT22;68131;52.508;5.502;2023-04-23T14:31:38;18.40;55.90
78788;DHT22;68131;52.508;5.502;2023-04-23T14:34:07;18.30;56.30
78788;DHT22;68131;52.508;5.502;2023-04-23T14:36:36;18.30;56.40
78788;DHT22;68131;52.508;5.502;2023-04-23T14:39:08;18.30;56.40
78788;DHT22;68131;52.508;5.502;2023-04-23T14:41:37;18.30;56.40
78788;DHT22;68131;52.508;5.502;2023-04-23T14:44:06;18.20;56.40
78788;DHT22;68131;52.508;5.502;2023-04-23T14:46:36;18.20;56.80
78788;DHT22;68131;52.508;5.502;2023-04-23T14:49:05;18.10;56.80
78788;DHT22;68131;52.508;5.502;2023-04-23T14:51:34;18.10;56.60
78788;DHT22;68131;52.508;5.502;2023-04-23T14:54:03;18.10;57.00
78788;DHT22;68131;52.508;5.502;2023-04-23T14:56:35;18.10;57.20
78788;DHT22;68131;52.508;5.502;2023-04-23T14:59:04;18.10;56.80
78788;DHT22;68131;52.508;5.502;2023-04-23T15:01:34;18.00;56.50
78788;DHT22;68131;52.508;5.502;2023-04-23T15:04:03;18.00;56.40
78788;DHT22;68131;52.508;5.502;2023-04-23T15:06:32;18.00;56.40
78788;DHT22;68131;52.508;5.502;2023-04-23T15:09:01;18.10;56.40
78788;DHT22;68131;52.508;5.502;2023-04-23T15:11:31;18.10;55.80
78788;DHT22;68131;52.508;5.502;2023-04-23T15:14:07;18.20;55.90
78788;DHT22;68131;52.508;5.502;2023-04-23T15:16:36;18.10;55.30
78788;DHT22;68131;52.508;5.502;2023-04-23T15:19:06;18.10;55.90
78788;DHT22;68131;52.508;5.502;2023-04-23T15:21:36;18.10;56.20
78788;DHT22;68131;52.508;5.502;2023-04-23T15:24:08;18.10;56.50
78788;DHT22;68131;52.508;5.502;2023-04-23T15:26:37;18.10;56.80
78788;DHT22;68131;52.508;5.502;2023-04-23T15:29:09;18.10;57.30
78788;DHT22;68131;52.508;5.502;2023-04-23T15:31:38;18.10;58.40
78788;DHT22;68131;52.508;5.502;2023-04-23T15:34:07;18.10;60.10
78788;DHT22;68131;52.508;5.502;2023-04-23T15:36:37;18.00;60.80
78788;DHT22;68131;52.508;5.502;2023-04-23T15:39:07;17.90;61.40
78788;DHT22;68131;52.508;5.502;2023-04-23T15:41:36;17.80;61.70
78788;DHT22;68131;52.508;5.502;2023-04-23T15:44:10;17.70;61.90
78788;DHT22;68131;52.508;5.502;2023-04-23T15:46:39;17.60;62.60
78788;DHT22;68131;52.508;5.502;2023-04-23T15:49:08;17.40;63.90
78788;DHT22;68131;52.508;5.502;2023-04-23T15:51:37;17.30;63.90
78788;DHT22;68131;52.508;5.502;2023-04-23T15:54:06;17.20;64.70
78788;DHT22;68131;52.508;5.502;2023-04-23T15:56:36;16.90;65.30
78788;DHT22;68131;52.508;5.502;2023-04-23T15:59:05;16.70;66.10